San Salvador, El Salvador

9:11 AM CST on December 07, 2016 (GMT -0600)
Ilopango International | | Change Station

Elev 2037 ft 13.70 °N, 89.12 °W | Updated 21 minutes ago

Haze
Haze
77 °F
Feels Like 77 °F
N
6
Wind Variable Wind from North

Today
High -- | Low -- °F
--% Chance of Precip.
Yesterday
High -- | Low -- °F
Precip. -- in
Pressure 30.01 in
Visibility 3.1 miles
Clouds Few 2300 ft
Dew Point 72 °F
Humidity 83%
Rainfall 0.00 in
Snow Depth Not available.
6:07 AM 5:28 PM
First Quarter, 53% visible
METAR MSSS 071450Z 36005KT 5000 2000NW HZ FEW023 25/22 Q1016 A3001
Pressure 30.01 in
Visibility 3.1 miles
Clouds Few 2300 ft
Dew Point 72 °F
Humidity 83%
Rainfall 0.00 in
Snow Depth Not available.
6:07 AM 5:28 PM
First Quarter, 53% visible
METAR MSSS 071450Z 36005KT 5000 2000NW HZ FEW023 25/22 Q1016 A3001

10-Day Weather Forecast

No radar image for this location.
×

Almanac

Astronomy

Dec. 07, 2016 Rise Set
Actual Time
Civil Twilight
Nautical Twilight
Astronomical Twilight
Moon
Length of Visible Light
Length of Day
Tomorrow will be .
, % of the Moon is Illuminated

Today's Extremes

Country Highs Country Lows

Community

WunderPhotos

Upload Photos

1,956,118 photos uploaded!

WunderBlog® & News

Nearby

Air Quality

  Air Quality AQ Index Pollutant
Not available.

Snow Depth

Station Depth Elevation

Earthquake Activity

City Distance Mag. Time & Date
Minimum magnitude displayed is 2.5.

Coastal Water Temperatures

Place Temperature

Stations

Nearby Weather Stations

Station Location Temp. Windchill Dew Point Humidity Wind Precip. Elev Updated Type